Time;durP1;ratioP1;P1;durP2;ratioP2;P2;SDS_P1;SDS_P2;PMS_P1;PMS_P2;Temp;Humidity;BMP_temperature;BMP_pressure;BME280_temperature;BME280_humidity;BME280_pressure;Samples;Min_cycle;Max_cycle;Signal;HPM_P1;HPM_P2
2020/12/29 00:00:50;;;;;;;41.88;32.97;;;;;;;-0.33;93.78;98128.56;5146371;27;20050;-78
2020/12/29 00:03:55;;;;;;;40.05;31.38;;;;;;;-0.38;93.71;98117.53;5123730;27;20054;-76
2020/12/29 00:06:59;;;;;;;42.47;31.58;;;;;;;-0.36;93.70;98112.97;5115668;28;20043;-79
2020/12/29 00:10:03;;;;;;;43.85;30.67;;;;;;;-0.29;93.87;98137.88;5103059;28;20374;-77
2020/12/29 00:13:08;;;;;;;40.47;29.63;;;;;;;-0.26;93.54;98159.56;5115679;28;20564;-77
2020/12/29 00:16:13;;;;;;;37.78;27.80;;;;;;;-0.38;93.35;98143.88;5115295;28;20047;-77
2020/12/29 00:19:21;;;;;;;34.53;26.30;;;;;;;-0.44;93.03;98176.81;5136522;27;20053;-77
2020/12/29 00:22:25;;;;;;;34.85;26.83;;;;;;;-0.46;92.82;98206.88;5139860;27;20057;-77
2020/12/29 00:25:30;;;;;;;37.67;26.25;;;;;;;-0.39;92.69;98168.56;5135609;27;20050;-77
2020/12/29 00:28:34;;;;;;;31.27;25.40;;;;;;;-0.38;92.69;98164.97;5135959;27;20046;-77
2020/12/29 00:31:38;;;;;;;30.77;25.42;;;;;;;-0.33;92.49;98131.19;5140684;27;20046;-76
2020/12/29 00:34:43;;;;;;;32.97;25.65;;;;;;;-0.45;92.69;98132.16;5156634;27;20054;-77
2020/12/29 00:37:47;;;;;;;31.08;24.35;;;;;;;-0.46;92.50;98178.75;5147311;27;20050;-78
2020/12/29 00:40:52;;;;;;;30.08;24.20;;;;;;;-0.43;92.52;98190.84;5136173;27;20050;-79
2020/12/29 00:43:56;;;;;;;32.33;24.80;;;;;;;-0.53;92.63;98181.97;5114336;28;20071;-78
2020/12/29 00:47:00;;;;;;;29.33;23.77;;;;;;;-0.47;92.43;98181.50;5155518;27;20389;-77
2020/12/29 00:50:05;;;;;;;31.98;25.60;;;;;;;-0.50;92.61;98181.75;5156287;27;20054;-78
2020/12/29 00:53:10;;;;;;;27.75;23.15;;;;;;;-0.46;92.78;98193.72;5156459;27;20065;-78
2020/12/29 00:56:21;;;;;;;30.80;23.75;;;;;;;-0.43;92.90;98181.16;5132012;27;20050;-77
2020/12/29 00:59:28;;;;;;;32.17;26.02;;;;;;;-0.52;93.08;98173.13;5122707;27;20070;-78
2020/12/29 01:02:33;;;;;;;33.03;25.33;;;;;;;-0.48;92.91;98175.41;5129766;27;20054;-78
2020/12/29 01:06:07;;;;;;;32.80;25.48;;;;;;;-0.48;93.07;98178.03;5012410;28;20068;-78
2020/12/29 01:09:11;;;;;;;32.38;26.05;;;;;;;-0.49;92.91;98181.59;5029737;28;20076;-76
2020/12/29 01:12:16;;;;;;;33.47;27.10;;;;;;;-0.50;93.15;98187.00;5020700;28;20068;-77
2020/12/29 01:15:21;;;;;;;31.23;25.98;;;;;;;-0.45;93.43;98169.03;5032353;28;20060;-77
2020/12/29 01:18:40;;;;;;;31.88;24.27;;;;;;;-0.43;93.18;98172.41;5032234;28;20048;-78
2020/12/29 01:21:45;;;;;;;29.92;24.17;;;;;;;-0.36;93.22;98168.31;5019891;28;20053;-78
2020/12/29 01:24:50;;;;;;;31.15;25.13;;;;;;;-0.31;93.06;98182.81;5031070;28;20053;-78
2020/12/29 01:27:55;;;;;;;30.65;23.85;;;;;;;-0.27;92.83;98186.06;5031804;28;20531;-76
2020/12/29 01:30:59;;;;;;;31.45;25.17;;;;;;;-0.28;92.69;98181.75;5031603;28;20065;-76
2020/12/29 01:34:04;;;;;;;32.13;24.40;;;;;;;-0.26;92.79;98191.22;5031532;28;20595;-78
2020/12/29 01:37:08;;;;;;;27.20;21.60;;;;;;;-0.12;92.17;98177.75;5028836;28;20455;-76
2020/12/29 01:40:14;;;;;;;24.83;20.42;;;;;;;0.03;91.19;98178.34;5011980;28;20060;-78
2020/12/29 01:43:18;;;;;;;24.60;18.80;;;;;;;0.04;90.75;98190.59;5073701;28;20048;-78
2020/12/29 01:46:22;;;;;;;28.52;22.45;;;;;;;0.04;90.44;98200.28;5103934;28;20050;-77
2020/12/29 01:49:27;;;;;;;32.70;23.85;;;;;;;0.03;90.64;98220.53;5110528;28;20051;-78
2020/12/29 01:52:31;;;;;;;28.75;23.27;;;;;;;0.00;90.32;98216.34;5097091;28;20047;-78
2020/12/29 01:55:36;;;;;;;28.42;23.23;;;;;;;-0.14;90.30;98202.56;5118127;28;20043;-79
2020/12/29 01:58:41;;;;;;;31.08;23.67;;;;;;;-0.17;90.20;98205.44;5102647;28;20044;-78
2020/12/29 02:01:45;;;;;;;28.35;22.20;;;;;;;-0.19;90.44;98217.91;5097917;28;20462;-78
2020/12/29 02:04:50;;;;;;;30.45;23.77;;;;;;;-0.31;90.48;98224.16;5113171;28;20070;-77
2020/12/29 02:07:55;;;;;;;29.00;23.58;;;;;;;-0.28;90.80;98245.84;5111593;28;20149;-78
2020/12/29 02:11:00;;;;;;;28.77;23.92;;;;;;;-0.28;90.88;98245.84;5104734;28;20043;-78
2020/12/29 02:14:08;;;;;;;29.63;24.58;;;;;;;-0.28;90.96;98266.09;5097102;28;20380;-77
2020/12/29 02:17:12;;;;;;;30.45;23.65;;;;;;;-0.28;91.22;98252.91;5108926;28;20406;-78
2020/12/29 02:20:16;;;;;;;31.52;24.38;;;;;;;-0.24;91.17;98275.41;5085604;28;20059;-78
2020/12/29 02:23:21;;;;;;;27.90;23.63;;;;;;;-0.26;91.32;98253.63;5117729;28;20066;-77
2020/12/29 02:26:25;;;;;;;;;;;;;;;-0.23;91.08;98277.13;5130189;27;20055;-78
2020/12/29 02:29:32;;;;;;;31.98;23.55;;;;;;;-0.22;91.02;98265.59;5140614;27;20285;-77
2020/12/29 02:32:37;;;;;;;29.75;23.45;;;;;;;-0.29;91.41;98272.28;5141872;27;20061;-78
2020/12/29 02:35:42;;;;;;;30.13;24.42;;;;;;;-0.27;91.47;98289.69;5158949;27;20050;-77
2020/12/29 02:38:45;;;;;;;29.10;24.27;;;;;;;-0.28;91.39;98260.81;5158497;27;20058;-79
2020/12/29 02:41:50;;;;;;;27.60;22.65;;;;;;;-0.23;91.47;98280.59;5159112;27;20050;-76
2020/12/29 02:44:54;;;;;;;27.52;22.85;;;;;;;-0.24;91.39;98262.25;5159050;27;20042;-79
2020/12/29 02:47:58;;;;;;;29.40;24.33;;;;;;;-0.26;91.28;98283.47;5158998;27;20049;-78
2020/12/29 02:51:03;;;;;;;25.90;21.10;;;;;;;0.09;90.05;98285.16;5122607;27;20109;-76
2020/12/29 02:54:07;;;;;;;28.30;20.90;;;;;;;0.03;89.77;98270.63;5158459;27;20392;-77
2020/12/29 02:57:11;;;;;;;26.63;20.85;;;;;;;0.10;89.59;98302.66;5158062;27;20049;-76
2020/12/29 03:00:16;;;;;;;26.13;21.40;;;;;;;0.09;89.30;98306.25;5158265;27;20050;-75
2020/12/29 03:03:20;;;;;;;26.45;20.83;;;;;;;0.09;89.54;98341.38;5158426;27;20381;-77
2020/12/29 03:06:24;;;;;;;26.25;20.98;;;;;;;0.06;89.50;98323.16;5157470;27;20488;-79
2020/12/29 03:09:29;;;;;;;25.83;20.20;;;;;;;0.14;89.34;98370.03;5157838;27;20078;-78
2020/12/29 03:12:39;;;;;;;24.95;20.98;;;;;;;0.08;89.16;98347.59;5158243;27;20414;-78
2020/12/29 03:15:44;;;;;;;25.23;19.20;;;;;;;0.04;88.79;98330.34;5145696;27;20065;-78
2020/12/29 03:18:48;;;;;;;26.50;21.30;;;;;;;0.01;88.78;98304.19;5158047;27;20488;-79
2020/12/29 03:21:54;;;;;;;26.17;20.48;;;;;;;-0.02;88.81;98296.53;5158608;27;20061;-79
2020/12/29 03:24:58;;;;;;;27.42;21.55;;;;;;;-0.06;89.71;98301.22;5157669;27;20046;-78
2020/12/29 03:28:02;;;;;;;25.05;20.77;;;;;;;0.03;89.63;98315.47;5145376;27;20586;-77
2020/12/29 03:31:07;;;;;;;24.05;21.08;;;;;;;0.00;89.68;98313.91;5157300;27;20050;-79
2020/12/29 03:34:16;;;;;;;26.70;21.23;;;;;;;0.01;89.85;98317.38;5157751;27;20385;-76
2020/12/29 03:37:22;;;;;;;26.30;22.02;;;;;;;0.02;90.13;98337.53;5157455;27;20496;-78
2020/12/29 03:40:26;;;;;;;25.15;21.15;;;;;;;-0.05;90.29;98344.25;5157859;27;20073;-76
2020/12/29 03:43:31;;;;;;;26.65;20.73;;;;;;;-0.04;90.23;98345.91;5157580;27;20038;-76
2020/12/29 03:46:35;;;;;;;24.17;20.63;;;;;;;-0.01;90.09;98353.59;5157769;27;20053;-78
2020/12/29 03:49:40;;;;;;;26.95;20.70;;;;;;;0.01;89.74;98359.59;5157401;27;20442;-77
2020/12/29 03:52:44;;;;;;;25.52;20.45;;;;;;;0.10;89.52;98371.22;5157085;27;20419;-78
2020/12/29 03:55:48;;;;;;;24.20;20.15;;;;;;;0.11;89.28;98391.34;5157354;27;20041;-78
2020/12/29 03:58:52;;;;;;;25.92;21.23;;;;;;;0.11;89.11;98391.34;5157281;27;20108;-77
2020/12/29 04:01:58;;;;;;;27.38;21.80;;;;;;;0.06;89.28;98391.72;5144662;27;20412;-78
2020/12/29 04:05:02;;;;;;;26.40;21.13;;;;;;;-0.02;88.92;98399.38;5157481;27;20053;-77
2020/12/29 04:08:07;;;;;;;27.55;21.52;;;;;;;-0.08;88.56;98384.03;5157044;27;20045;-78
2020/12/29 04:11:12;;;;;;;25.00;21.10;;;;;;;-0.03;88.57;98395.06;5144184;27;20377;-75
2020/12/29 04:14:16;;;;;;;27.75;20.27;;;;;;;-0.02;88.36;98373.00;5157445;27;20380;-78
2020/12/29 04:17:21;;;;;;;25.88;20.90;;;;;;;0.07;87.91;98398.69;5157261;27;20050;-77
2020/12/29 04:20:25;;;;;;;24.85;20.88;;;;;;;0.05;87.92;98376.03;5143850;27;20070;-78
2020/12/29 04:23:29;;;;;;;24.38;20.20;;;;;;;0.08;87.55;98352.88;5156842;27;20046;-78
2020/12/29 04:26:34;;;;;;;25.27;20.30;;;;;;;0.09;87.23;98414.38;5157156;27;20050;-77
2020/12/29 04:29:38;;;;;;;19.63;16.80;;;;;;;0.32;87.08;98368.63;5156689;27;20049;-77
2020/12/29 04:32:42;;;;;;;20.30;14.15;;;;;;;1.39;83.22;98354.59;5156482;27;20046;-77
2020/12/29 04:35:46;;;;;;;16.40;12.90;;;;;;;1.36;81.88;98383.91;5143861;27;20041;-78
2020/12/29 04:38:51;;;;;;;14.90;12.15;;;;;;;1.32;82.05;98366.63;5156817;27;20054;-78
2020/12/29 04:42:02;;;;;;;16.55;13.00;;;;;;;1.40;81.64;98366.00;5156200;27;20483;-77
2020/12/29 04:45:07;;;;;;;18.85;15.13;;;;;;;1.25;82.67;98354.91;5156654;27;20385;-77
2020/12/29 04:48:12;;;;;;;18.05;14.68;;;;;;;1.17;82.68;98371.38;5156235;27;20050;-76
2020/12/29 04:51:17;;;;;;;18.02;15.07;;;;;;;1.05;83.67;98404.06;5155777;27;20040;-77
2020/12/29 04:54:24;;;;;;;19.83;15.60;;;;;;;1.01;84.46;98428.22;5143324;27;20365;-77
2020/12/29 04:57:29;;;;;;;16.95;14.73;;;;;;;0.97;85.09;98437.31;5156197;27;20050;-78
2020/12/29 05:00:34;;;;;;;20.00;16.13;;;;;;;0.90;85.94;98434.34;5163057;27;20053;-77
2020/12/29 05:03:46;;;;;;;20.45;17.02;;;;;;;0.91;86.10;98449.22;5156375;27;20053;-76
2020/12/29 05:06:53;;;;;;;21.52;17.50;;;;;;;0.94;85.79;98474.56;5143322;27;20045;-79
2020/12/29 05:10:07;;;;;;;20.52;16.70;;;;;;;1.00;85.41;98451.13;5155864;27;20046;-78
2020/12/29 05:13:12;;;;;;;19.45;16.05;;;;;;;1.06;85.48;98449.81;5153757;27;20054;-75
2020/12/29 05:16:16;;;;;;;20.13;15.32;;;;;;;1.01;85.23;98428.22;5155268;27;20396;-75
2020/12/29 05:19:22;;;;;;;18.33;14.88;;;;;;;1.05;84.37;98442.84;5154757;27;20054;-78
2020/12/29 05:22:27;;;;;;;19.33;15.25;;;;;;;1.04;84.51;98446.44;5135067;27;20047;-76
2020/12/29 05:25:32;;;;;;;20.08;15.75;;;;;;;1.05;84.67;98456.03;5134740;27;20061;-77
2020/12/29 05:28:37;;;;;;;20.58;17.15;;;;;;;1.04;84.73;98467.56;5121794;27;20050;-77
2020/12/29 05:31:43;;;;;;;19.50;16.80;;;;;;;0.97;85.06;98477.78;5135035;27;20493;-77
2020/12/29 05:34:47;;;;;;;22.27;17.92;;;;;;;0.87;84.76;98452.22;5134903;28;20054;-77
2020/12/29 05:37:52;;;;;;;19.10;16.90;;;;;;;0.86;84.72;98488.38;5134887;28;20050;-79
2020/12/29 05:40:56;;;;;;;21.48;16.80;;;;;;;0.81;84.24;98498.44;5134287;27;20055;-76
2020/12/29 05:44:02;;;;;;;21.38;17.75;;;;;;;0.80;84.44;98509.09;5135007;28;20050;-78
2020/12/29 05:47:12;;;;;;;22.08;17.33;;;;;;;0.78;84.98;98511.03;5134813;28;20055;-78
2020/12/29 05:50:18;;;;;;;22.70;19.30;;;;;;;0.68;85.26;98502.97;5134727;28;20058;-78
2020/12/29 05:53:24;;;;;;;25.92;20.73;;;;;;;0.44;85.49;98511.00;5134782;28;20050;-78
2020/12/29 05:56:32;;;;;;;24.33;21.10;;;;;;;0.36;85.96;98529.19;5134776;28;20050;-79
2020/12/29 05:59:36;;;;;;;27.25;21.80;;;;;;;0.33;86.20;98533.84;5134545;28;20051;-78
2020/12/29 06:02:49;;;;;;;27.48;21.08;;;;;;;0.22;86.57;98549.66;5122071;28;20050;-78
2020/12/29 06:05:58;;;;;;;30.98;25.80;;;;;;;0.17;86.31;98552.66;5110361;28;20054;-79
2020/12/29 06:09:15;;;;;;;35.28;27.33;;;;;;;0.10;86.93;98576.94;5122026;28;20050;-79
2020/12/29 06:12:31;;;;;;;29.42;23.83;;;;;;;0.05;87.15;98573.81;5132975;27;20058;-77
2020/12/29 06:15:37;;;;;;;29.25;23.38;;;;;;;-0.12;87.21;98552.16;5134119;27;20047;-78
2020/12/29 06:18:46;;;;;;;30.73;24.58;;;;;;;-0.17;87.88;98537.59;5134037;28;20054;-78
2020/12/29 06:22:12;;;;;;;31.08;24.55;;;;;;;-0.16;87.84;98549.84;5133786;28;20066;-78
2020/12/29 06:25:18;;;;;;;29.98;25.33;;;;;;;-0.18;87.82;98564.94;5113920;28;20390;-78
2020/12/29 06:28:27;;;;;;;30.60;25.52;;;;;;;-0.25;88.29;98579.53;5114144;28;20524;-77
2020/12/29 06:31:32;;;;;;;29.52;25.17;;;;;;;-0.39;88.39;98587.56;5113878;28;20089;-77
2020/12/29 06:34:38;;;;;;;30.30;24.98;;;;;;;-0.43;88.87;98599.28;5148231;27;20050;-77
2020/12/29 06:37:54;;;;;;;35.25;26.38;;;;;;;-0.49;88.67;98605.00;5142232;27;20054;-77
2020/12/29 06:41:00;;;;;;;32.35;26.33;;;;;;;-0.60;89.16;98611.03;5131988;27;20065;-78
2020/12/29 06:44:04;;;;;;;32.50;26.92;;;;;;;-0.52;89.81;98608.69;5117524;28;20153;-78
2020/12/29 06:47:12;;;;;;;32.42;28.52;;;;;;;-0.37;90.74;98590.94;5117753;28;20051;-78
2020/12/29 06:50:30;;;;;;;33.85;28.75;;;;;;;-0.50;90.93;98605.94;5121348;27;20055;-79
2020/12/29 06:53:34;;;;;;;33.00;26.58;;;;;;;-0.48;90.79;98596.13;5145824;27;20049;-77
2020/12/29 06:56:56;;;;;;;33.80;28.00;;;;;;;-0.46;91.62;98583.69;5145589;27;20061;-77
2020/12/29 07:00:11;;;;;;;37.67;30.75;;;;;;;-0.49;91.65;98586.56;5158887;27;20054;-77
2020/12/29 07:03:31;;;;;;;41.85;32.58;;;;;;;-0.53;91.90;98585.94;5146884;27;20046;-81
2020/12/29 07:06:36;;;;;;;37.55;31.02;;;;;;;-0.54;91.79;98602.66;5151015;27;20042;-77
2020/12/29 07:09:44;;;;;;;37.33;30.80;;;;;;;-0.48;91.99;98602.25;5133267;27;20049;-78
2020/12/29 07:12:50;;;;;;;36.33;29.58;;;;;;;-0.41;91.61;98603.50;5137972;27;20043;-77
2020/12/29 07:15:55;;;;;;;34.88;29.48;;;;;;;-0.36;91.71;98611.06;5137047;27;20042;-77
2020/12/29 07:19:27;;;;;;;36.40;29.60;;;;;;;-0.30;91.09;98606.22;5137404;27;20050;-76
2020/12/29 07:22:32;;;;;;;31.42;27.20;;;;;;;-0.33;90.69;98608.22;5096488;28;20047;-78
2020/12/29 07:25:36;;;;;;;38.63;28.77;;;;;;;-0.29;90.56;98591.22;5091665;28;20051;-77
2020/12/29 07:28:42;;;;;;;39.22;28.95;;;;;;;-0.26;90.30;98601.56;5112007;28;20046;-77
2020/12/29 07:31:46;;;;;;;34.13;28.45;;;;;;;-0.23;90.48;98601.34;5098518;28;20055;-74
2020/12/29 07:34:51;;;;;;;38.75;30.90;;;;;;;-0.32;90.40;98617.81;5075470;28;20047;-79
2020/12/29 07:37:57;;;;;;;45.58;36.30;;;;;;;-0.28;90.33;98614.00;5095130;28;20052;-81
2020/12/29 07:41:02;;;;;;;43.25;33.20;;;;;;;-0.21;89.99;98607.34;5109722;28;20062;-78
2020/12/29 07:44:07;;;;;;;39.58;31.15;;;;;;;-0.11;90.25;98601.28;5098870;28;20054;-78
2020/12/29 07:47:12;;;;;;;34.70;28.45;;;;;;;-0.06;89.79;98644.00;5092387;28;20391;-78
2020/12/29 07:50:16;;;;;;;41.70;33.38;;;;;;;-0.12;89.55;98636.50;5100335;28;20047;-76
2020/12/29 07:53:24;;;;;;;41.90;33.67;;;;;;;-0.15;89.84;98631.44;5106485;28;20531;-76
2020/12/29 07:56:28;;;;;;;38.72;32.17;;;;;;;-0.16;90.26;98616.59;5105548;28;20039;-75
2020/12/29 07:59:33;;;;;;;43.30;34.22;;;;;;;0.16;89.87;98613.41;5072783;28;20052;-76
2020/12/29 08:02:38;;;;;;;40.30;33.78;;;;;;;0.12;89.30;98628.63;5079208;28;20052;-78
2020/12/29 08:05:42;;;;;;;38.40;31.55;;;;;;;0.20;89.14;98646.53;5081919;28;20421;-78
2020/12/29 08:08:47;;;;;;;35.20;29.60;;;;;;;0.22;89.04;98632.28;5094511;28;20039;-78
2020/12/29 08:11:52;;;;;;;36.45;30.90;;;;;;;0.23;89.00;98641.88;5095174;28;20047;-78
2020/12/29 08:14:56;;;;;;;33.95;28.65;;;;;;;0.29;88.84;98643.22;5096783;28;20051;-78
2020/12/29 08:18:14;;;;;;;33.03;27.80;;;;;;;0.26;88.70;98657.47;5115242;28;20046;-77
2020/12/29 08:21:18;;;;;;;40.35;29.55;;;;;;;0.24;88.25;98675.22;5138978;27;20050;-79
2020/12/29 08:24:23;;;;;;;32.15;28.67;;;;;;;0.28;88.28;98681.09;5156348;27;20050;-79
2020/12/29 08:27:27;;;;;;;36.00;28.42;;;;;;;0.32;88.50;98693.94;5156556;27;20389;-79
2020/12/29 08:30:33;;;;;;;34.47;30.58;;;;;;;0.29;88.45;98682.81;5138096;27;20057;-77
2020/12/29 08:33:41;;;;;;;33.58;28.25;;;;;;;0.26;88.66;98680.38;5128459;27;20053;-77
2020/12/29 08:36:46;;;;;;;35.63;29.00;;;;;;;0.21;88.84;98722.06;5155881;27;20054;-78
2020/12/29 08:40:06;;;;;;;36.20;29.73;;;;;;;0.13;88.77;98730.53;5156238;27;20516;-77
2020/12/29 08:43:16;;;;;;;35.88;29.33;;;;;;;0.13;88.94;98735.81;5155939;27;20075;-77
2020/12/29 08:46:23;;;;;;;33.85;29.13;;;;;;;0.10;89.06;98730.75;5114834;28;20058;-79
2020/12/29 08:49:30;;;;;;;36.17;29.67;;;;;;;0.13;88.86;98732.31;5113460;27;20046;-78
2020/12/29 08:52:34;;;;;;;38.05;30.92;;;;;;;0.11;88.95;98732.44;5139922;27;20050;-78
2020/12/29 08:55:40;;;;;;;36.58;30.45;;;;;;;0.14;88.69;98732.25;5134340;27;20054;-78
2020/12/29 08:58:48;;;;;;;35.85;29.90;;;;;;;0.15;88.81;98726.00;5111014;27;20385;-77
2020/12/29 09:01:57;;;;;;;33.60;28.95;;;;;;;0.20;88.25;98760.81;5132587;27;20066;-77
2020/12/29 09:05:01;;;;;;;34.58;30.00;;;;;;;0.31;88.22;98752.97;5121304;27;20474;-77
2020/12/29 09:08:06;;;;;;;38.65;32.47;;;;;;;0.54;87.73;98759.25;5122431;27;20054;-77
2020/12/29 09:11:15;;;;;;;41.60;33.38;;;;;;;0.76;87.17;98774.34;5122353;27;20057;-77
2020/12/29 09:14:26;;;;;;;40.25;31.60;;;;;;;0.98;86.55;98780.59;5120763;27;20046;-78
2020/12/29 09:17:33;;;;;;;35.90;29.50;;;;;;;0.95;86.17;98801.94;5145773;27;20065;-77
2020/12/29 09:20:37;;;;;;;34.63;29.02;;;;;;;1.00;85.70;98780.47;5125022;27;20054;-77
2020/12/29 09:23:41;;;;;;;36.85;30.08;;;;;;;1.00;85.29;98764.63;5151880;27;20066;-78
2020/12/29 09:26:49;;;;;;;37.55;30.75;;;;;;;0.97;85.35;98760.41;5134255;27;20481;-76
2020/12/29 09:29:54;;;;;;;37.92;30.50;;;;;;;1.02;85.54;98783.84;5135073;27;20101;-78
2020/12/29 09:32:59;;;;;;;40.55;30.17;;;;;;;1.01;85.50;98805.94;5134805;27;20070;-76
2020/12/29 09:36:06;;;;;;;37.08;32.17;;;;;;;0.95;85.52;98788.72;5122158;28;20042;-78
2020/12/29 09:39:11;;;;;;;38.65;33.25;;;;;;;1.03;85.30;98790.81;5134067;28;20050;-78
2020/12/29 09:42:16;;;;;;;37.00;31.70;;;;;;;1.04;85.24;98777.47;5134311;28;20051;-77
2020/12/29 09:45:21;;;;;;;;;;;;;;;1.33;84.85;98767.38;5134369;27;20042;-78
2020/12/29 09:48:25;;;;;;;34.10;29.05;;;;;;;2.06;82.98;98762.53;5133964;28;19919;-77
2020/12/29 09:51:29;;;;;;;33.88;28.85;;;;;;;2.67;79.99;98757.69;5133987;28;20066;-78
2020/12/29 09:54:34;;;;;;;30.33;27.05;;;;;;;2.77;78.05;98774.47;5121408;28;20046;-78
2020/12/29 09:57:38;;;;;;;31.80;28.08;;;;;;;2.67;77.99;98762.97;5134462;28;20050;-78
2020/12/29 10:00:43;;;;;;;32.90;28.88;;;;;;;2.58;78.29;98749.50;5133798;28;20058;-77
2020/12/29 10:03:47;;;;;;;33.83;29.75;;;;;;;2.33;78.83;98762.16;5134012;28;20058;-78
2020/12/29 10:06:51;;;;;;;33.72;29.98;;;;;;;2.12;79.70;98771.81;5133985;28;20054;-79
2020/12/29 10:09:56;;;;;;;37.70;31.85;;;;;;;1.93;80.77;98791.75;5131810;28;20050;-79
2020/12/29 10:13:00;;;;;;;38.40;33.70;;;;;;;1.84;81.29;98771.31;5122218;28;20046;-76
2020/12/29 10:16:04;;;;;;;37.67;32.50;;;;;;;1.89;81.49;98753.28;5137107;27;20046;-77
2020/12/29 10:19:09;;;;;;;37.53;32.72;;;;;;;1.84;81.76;98765.19;5138138;27;20050;-77
2020/12/29 10:22:13;;;;;;;40.17;33.85;;;;;;;1.68;82.10;98788.50;5136521;27;20396;-79
2020/12/29 10:25:18;;;;;;;42.58;35.55;;;;;;;1.53;81.89;98784.38;5120990;27;20487;-78
2020/12/29 10:28:22;;;;;;;43.58;35.28;;;;;;;1.21;83.01;98782.34;5127878;27;20070;-78
2020/12/29 10:31:26;;;;;;;44.38;34.67;;;;;;;1.30;83.14;98780.81;5137596;27;20054;-78
2020/12/29 10:34:31;;;;;;;40.22;34.03;;;;;;;1.33;83.12;98795.63;5137730;27;20050;-78
2020/12/29 10:37:36;;;;;;;40.63;34.17;;;;;;;1.41;83.50;98780.03;5137886;27;20499;-77
2020/12/29 10:40:40;;;;;;;45.00;39.00;;;;;;;1.45;83.90;98807.91;5137497;27;20054;-78
2020/12/29 10:43:46;;;;;;;46.42;36.42;;;;;;;1.58;84.24;98809.50;5137724;27;20066;-78
2020/12/29 10:46:51;;;;;;;44.28;38.53;;;;;;;1.83;84.15;98819.88;5137700;27;20050;-78
2020/12/29 10:49:55;;;;;;;39.60;34.15;;;;;;;2.71;82.61;98804.13;5137410;27;20504;-77
2020/12/29 10:53:00;;;;;;;36.72;32.42;;;;;;;3.40;79.35;98810.75;5137692;27;20050;-76
2020/12/29 10:56:04;;;;;;;36.78;31.77;;;;;;;3.66;77.49;98833.28;5137166;27;20054;-78
2020/12/29 10:59:09;;;;;;;34.90;30.50;;;;;;;3.91;75.97;98820.50;5125009;27;20507;-78
2020/12/29 11:02:14;;;;;;;34.50;30.33;;;;;;;3.83;75.64;98808.81;5137494;27;20512;-77
2020/12/29 11:05:18;;;;;;;34.75;29.65;;;;;;;3.74;75.71;98802.50;5137392;27;20046;-77
2020/12/29 11:08:26;;;;;;;34.03;30.42;;;;;;;3.43;76.56;98795.44;5137038;27;20046;-78
2020/12/29 11:11:32;;;;;;;36.80;31.75;;;;;;;3.08;77.79;98787.78;5124447;27;20046;-79
2020/12/29 11:14:36;;;;;;;38.88;34.67;;;;;;;2.82;79.15;98790.84;5135852;27;20050;-78
2020/12/29 11:17:41;;;;;;;39.72;35.42;;;;;;;2.70;80.14;98766.19;5136407;27;20050;-78
2020/12/29 11:20:50;;;;;;;40.42;34.00;;;;;;;2.76;80.48;98784.25;5136807;27;20058;-77
2020/12/29 11:23:54;;;;;;;37.47;32.20;;;;;;;2.85;80.64;98778.19;5133895;27;20035;-77
2020/12/29 11:26:59;;;;;;;39.50;34.40;;;;;;;2.59;81.09;98812.06;5123177;27;20066;-79
2020/12/29 11:30:03;;;;;;;41.22;35.03;;;;;;;2.78;81.11;98787.63;5123421;27;20054;-80
2020/12/29 11:33:09;;;;;;;42.60;36.40;;;;;;;2.94;80.94;98801.28;5137144;27;20046;-78
2020/12/29 11:36:21;;;;;;;41.30;35.53;;;;;;;3.25;80.26;98781.06;5135080;27;20500;-77
2020/12/29 11:39:25;;;;;;;40.20;35.40;;;;;;;3.45;80.10;98787.34;5136529;27;20512;-76
2020/12/29 11:42:30;;;;;;;39.00;34.47;;;;;;;3.34;79.92;98784.75;5136560;27;20381;-75
2020/12/29 11:45:34;;;;;;;41.60;33.55;;;;;;;3.38;79.78;98792.34;5137146;27;20047;-76
2020/12/29 11:48:39;;;;;;;40.10;34.45;;;;;;;3.52;79.27;98801.78;5136914;27;20488;-77
2020/12/29 11:51:47;;;;;;;43.22;35.13;;;;;;;3.75;77.89;98798.84;5123803;27;20393;-77
2020/12/29 11:54:52;;;;;;;41.20;34.25;;;;;;;3.59;77.84;98758.69;5136067;27;20058;-78
2020/12/29 11:57:56;;;;;;;38.83;33.28;;;;;;;3.82;76.94;98777.97;5136176;27;20070;-78
2020/12/29 12:01:01;;;;;;;37.97;33.50;;;;;;;4.08;76.18;98763.28;5136458;27;20050;-78
2020/12/29 12:04:05;;;;;;;37.45;33.20;;;;;;;4.23;76.15;98775.25;5136062;27;20054;-76
2020/12/29 12:07:10;;;;;;;41.42;36.55;;;;;;;3.90;76.16;98778.16;5136082;27;20053;-75
2020/12/29 12:10:15;;;;;;;39.20;34.47;;;;;;;3.73;76.83;98792.00;5135981;27;20081;-78
2020/12/29 12:13:19;;;;;;;41.55;36.33;;;;;;;3.54;78.00;98783.94;5135737;27;20050;-77
2020/12/29 12:16:24;;;;;;;40.22;35.58;;;;;;;3.45;78.85;98801.47;5135788;27;20393;-79
2020/12/29 12:19:29;;;;;;;43.03;37.67;;;;;;;3.33;79.23;98761.88;5135995;27;20069;-78
2020/12/29 12:22:34;;;;;;;42.17;36.15;;;;;;;3.16;79.99;98798.56;5135549;27;20497;-78
2020/12/29 12:25:40;;;;;;;44.25;37.92;;;;;;;3.14;80.11;98784.59;5135794;27;20042;-78
2020/12/29 12:28:45;;;;;;;46.33;36.30;;;;;;;2.93;81.41;98806.72;5122885;27;20057;-79
2020/12/29 12:31:49;;;;;;;44.58;38.22;;;;;;;2.86;81.46;98764.00;5135636;27;20046;-79
2020/12/29 12:34:54;;;;;;;45.20;39.08;;;;;;;2.52;82.79;98792.34;5135303;27;20050;-77
2020/12/29 12:37:58;;;;;;;45.85;39.47;;;;;;;2.75;82.88;98819.66;5134994;27;20046;-78
2020/12/29 12:41:06;;;;;;;44.08;37.03;;;;;;;2.86;82.86;98819.63;5135589;27;20504;-77
2020/12/29 12:44:10;;;;;;;45.22;38.33;;;;;;;2.89;82.78;98797.34;5123101;27;20385;-79
2020/12/29 12:47:15;;;;;;;44.90;35.72;;;;;;;2.86;82.65;98797.59;5123138;27;20047;-77
2020/12/29 12:50:21;;;;;;;44.15;38.00;;;;;;;2.75;82.20;98793.16;5135294;27;20050;-79
2020/12/29 12:53:25;;;;;;;46.85;37.15;;;;;;;2.76;82.27;98804.59;5135264;27;20050;-78
2020/12/29 12:56:30;;;;;;;47.70;38.70;;;;;;;2.60;82.96;98829.66;5122699;27;20413;-78
2020/12/29 12:59:35;;;;;;;46.63;39.22;;;;;;;2.43;83.40;98806.34;5135557;27;20046;-78
2020/12/29 13:02:39;;;;;;;45.92;40.00;;;;;;;2.36;84.13;98802.50;5135742;27;20042;-79
2020/12/29 13:05:44;;;;;;;52.90;41.38;;;;;;;2.37;84.41;98851.00;5135435;27;20051;-78
2020/12/29 13:08:48;;;;;;;54.40;42.60;;;;;;;2.28;85.17;98804.03;5135115;27;20050;-78
2020/12/29 13:11:52;;;;;;;48.30;41.05;;;;;;;2.32;85.83;98821.38;5135093;27;20058;-78
2020/12/29 13:14:57;;;;;;;48.55;41.10;;;;;;;2.37;85.71;98816.56;5135550;27;20054;-79
2020/12/29 13:18:02;;;;;;;47.28;40.00;;;;;;;2.42;85.40;98839.06;5122820;27;20042;-79
2020/12/29 13:21:14;;;;;;;49.05;40.28;;;;;;;2.47;85.11;98836.88;5134693;27;20054;-79
2020/12/29 13:24:19;;;;;;;45.28;39.38;;;;;;;2.64;84.73;98848.81;5135426;27;20053;-80
2020/12/29 13:27:23;;;;;;;48.63;40.80;;;;;;;2.61;84.37;98828.72;5122792;27;20511;-79
2020/12/29 13:30:27;;;;;;;51.33;43.60;;;;;;;2.50;83.88;98841.94;5134727;27;20054;-80
2020/12/29 13:33:32;;;;;;;50.20;42.22;;;;;;;2.47;83.81;98873.97;5135099;27;20050;-80
2020/12/29 13:36:36;;;;;;;46.28;39.13;;;;;;;2.38;84.13;98890.56;5135064;27;20058;-79
2020/12/29 13:39:41;;;;;;;44.38;38.38;;;;;;;2.29;84.36;98877.22;5135012;28;20042;-79
2020/12/29 13:42:45;;;;;;;47.58;39.45;;;;;;;2.29;84.63;98891.28;5134673;28;20050;-79
2020/12/29 13:45:50;;;;;;;48.22;39.30;;;;;;;2.29;84.21;98883.34;5134611;28;20050;-79
2020/12/29 13:48:54;;;;;;;48.85;40.47;;;;;;;2.20;84.49;98902.56;5122539;28;20042;-78
2020/12/29 13:51:59;;;;;;;44.80;38.08;;;;;;;2.24;84.80;98887.31;5138520;27;20055;-79
2020/12/29 13:55:03;;;;;;;50.78;42.47;;;;;;;2.10;83.96;98895.47;5126749;27;20050;-79
2020/12/29 13:58:08;;;;;;;50.17;42.20;;;;;;;2.13;84.13;98897.88;5139490;27;20054;-79
2020/12/29 14:01:13;;;;;;;49.75;41.85;;;;;;;2.17;84.11;98883.47;5138634;27;20050;-81
2020/12/29 14:04:18;;;;;;;54.95;43.42;;;;;;;2.22;84.62;98873.34;5139011;27;20046;-76
2020/12/29 14:07:22;;;;;;;54.03;45.03;;;;;;;2.28;85.59;98891.41;5138485;27;20050;-75
2020/12/29 14:10:27;;;;;;;57.13;46.00;;;;;;;2.23;85.71;98882.97;5138774;27;20061;-78
2020/12/29 14:13:32;;;;;;;58.83;46.70;;;;;;;2.13;85.35;98887.28;5131356;27;20058;-79
2020/12/29 14:16:36;;;;;;;58.95;46.42;;;;;;;2.13;85.58;98869.59;5132696;27;20057;-78
2020/12/29 14:19:40;;;;;;;60.65;47.13;;;;;;;2.12;85.40;98885.63;5137834;27;20503;-78
2020/12/29 14:22:44;;;;;;;63.85;48.85;;;;;;;2.12;85.46;98906.78;5097332;28;20047;-78